sensor_id;sensor_type;location;lat;lon;timestamp;P1;durP1;ratioP1;P2;durP2;ratioP2
74152;SDS011;62505;46.070;14.492;2023-07-13T00:01:44;9.70;;;4.65;;
74152;SDS011;62505;46.070;14.492;2023-07-13T00:04:14;6.70;;;4.10;;
74152;SDS011;62505;46.070;14.492;2023-07-13T00:06:42;11.52;;;4.28;;
74152;SDS011;62505;46.070;14.492;2023-07-13T00:09:09;8.20;;;4.32;;
74152;SDS011;62505;46.070;14.492;2023-07-13T00:11:37;7.90;;;4.15;;
74152;SDS011;62505;46.070;14.492;2023-07-13T00:14:06;11.65;;;4.47;;
74152;SDS011;62505;46.070;14.492;2023-07-13T00:16:33;6.70;;;3.90;;
74152;SDS011;62505;46.070;14.492;2023-07-13T00:19:00;10.90;;;4.55;;
74152;SDS011;62505;46.070;14.492;2023-07-13T00:21:27;9.73;;;4.43;;
74152;SDS011;62505;46.070;14.492;2023-07-13T00:23:54;8.32;;;4.68;;
74152;SDS011;62505;46.070;14.492;2023-07-13T00:26:21;7.70;;;4.63;;
74152;SDS011;62505;46.070;14.492;2023-07-13T00:28:48;8.35;;;4.25;;
74152;SDS011;62505;46.070;14.492;2023-07-13T00:31:16;7.28;;;4.05;;
74152;SDS011;62505;46.070;14.492;2023-07-13T00:33:43;7.80;;;4.35;;
74152;SDS011;62505;46.070;14.492;2023-07-13T00:36:10;8.88;;;4.60;;
74152;SDS011;62505;46.070;14.492;2023-07-13T00:38:38;9.02;;;4.03;;
74152;SDS011;62505;46.070;14.492;2023-07-13T00:41:05;5.30;;;3.88;;
74152;SDS011;62505;46.070;14.492;2023-07-13T00:43:31;9.93;;;4.63;;
74152;SDS011;62505;46.070;14.492;2023-07-13T00:46:10;8.80;;;3.85;;
74152;SDS011;62505;46.070;14.492;2023-07-13T00:48:42;9.32;;;4.50;;
74152;SDS011;62505;46.070;14.492;2023-07-13T00:51:11;7.25;;;4.70;;
74152;SDS011;62505;46.070;14.492;2023-07-13T00:53:39;9.93;;;4.13;;
74152;SDS011;62505;46.070;14.492;2023-07-13T00:56:06;9.15;;;4.63;;
74152;SDS011;62505;46.070;14.492;2023-07-13T00:58:34;7.88;;;4.30;;
74152;SDS011;62505;46.070;14.492;2023-07-13T01:01:01;7.65;;;4.07;;
74152;SDS011;62505;46.070;14.492;2023-07-13T01:03:28;6.10;;;4.00;;
74152;SDS011;62505;46.070;14.492;2023-07-13T01:05:57;13.80;;;4.13;;
74152;SDS011;62505;46.070;14.492;2023-07-13T01:08:24;7.95;;;4.47;;
74152;SDS011;62505;46.070;14.492;2023-07-13T01:10:51;11.70;;;4.85;;
74152;SDS011;62505;46.070;14.492;2023-07-13T01:13:19;10.65;;;4.47;;
74152;SDS011;62505;46.070;14.492;2023-07-13T01:15:47;7.25;;;4.10;;
74152;SDS011;62505;46.070;14.492;2023-07-13T01:18:17;10.07;;;4.63;;
74152;SDS011;62505;46.070;14.492;2023-07-13T01:20:50;10.65;;;4.00;;
74152;SDS011;62505;46.070;14.492;2023-07-13T01:23:18;6.85;;;3.63;;
74152;SDS011;62505;46.070;14.492;2023-07-13T01:25:45;6.47;;;4.15;;
74152;SDS011;62505;46.070;14.492;2023-07-13T01:28:12;8.63;;;4.25;;
74152;SDS011;62505;46.070;14.492;2023-07-13T01:30:42;10.27;;;4.30;;
74152;SDS011;62505;46.070;14.492;2023-07-13T01:33:10;8.25;;;4.40;;
74152;SDS011;62505;46.070;14.492;2023-07-13T01:35:37;7.40;;;3.88;;
74152;SDS011;62505;46.070;14.492;2023-07-13T01:38:06;10.18;;;4.13;;
74152;SDS011;62505;46.070;14.492;2023-07-13T01:40:34;5.60;;;3.85;;
74152;SDS011;62505;46.070;14.492;2023-07-13T01:43:01;10.23;;;4.22;;
74152;SDS011;62505;46.070;14.492;2023-07-13T01:45:28;9.98;;;4.07;;
74152;SDS011;62505;46.070;14.492;2023-07-13T01:47:55;7.70;;;4.03;;
74152;SDS011;62505;46.070;14.492;2023-07-13T01:50:23;6.35;;;3.67;;
74152;SDS011;62505;46.070;14.492;2023-07-13T01:52:50;8.30;;;4.03;;
74152;SDS011;62505;46.070;14.492;2023-07-13T01:55:18;6.18;;;3.85;;
74152;SDS011;62505;46.070;14.492;2023-07-13T01:57:46;7.32;;;4.10;;
74152;SDS011;62505;46.070;14.492;2023-07-13T02:00:13;6.55;;;3.67;;
74152;SDS011;62505;46.070;14.492;2023-07-13T02:02:41;5.72;;;3.80;;
74152;SDS011;62505;46.070;14.492;2023-07-13T02:05:09;11.02;;;3.72;;
74152;SDS011;62505;46.070;14.492;2023-07-13T02:07:36;6.85;;;3.72;;
74152;SDS011;62505;46.070;14.492;2023-07-13T02:10:03;5.90;;;3.22;;
74152;SDS011;62505;46.070;14.492;2023-07-13T02:12:32;8.35;;;3.72;;
74152;SDS011;62505;46.070;14.492;2023-07-13T02:15:00;8.57;;;3.45;;
74152;SDS011;62505;46.070;14.492;2023-07-13T02:17:27;8.18;;;3.70;;
74152;SDS011;62505;46.070;14.492;2023-07-13T02:19:54;9.82;;;3.70;;
74152;SDS011;62505;46.070;14.492;2023-07-13T02:22:21;8.23;;;2.95;;
74152;SDS011;62505;46.070;14.492;2023-07-13T02:24:48;8.63;;;3.38;;
74152;SDS011;62505;46.070;14.492;2023-07-13T02:27:16;4.95;;;3.40;;
74152;SDS011;62505;46.070;14.492;2023-07-13T02:29:44;5.53;;;3.30;;
74152;SDS011;62505;46.070;14.492;2023-07-13T02:32:11;5.68;;;3.50;;
74152;SDS011;62505;46.070;14.492;2023-07-13T02:34:38;5.78;;;3.65;;
74152;SDS011;62505;46.070;14.492;2023-07-13T02:37:07;11.45;;;3.83;;
74152;SDS011;62505;46.070;14.492;2023-07-13T02:39:34;8.13;;;3.20;;
74152;SDS011;62505;46.070;14.492;2023-07-13T02:42:01;8.88;;;3.30;;
74152;SDS011;62505;46.070;14.492;2023-07-13T02:44:28;5.25;;;3.33;;
74152;SDS011;62505;46.070;14.492;2023-07-13T02:46:56;5.18;;;3.35;;
74152;SDS011;62505;46.070;14.492;2023-07-13T02:49:23;4.22;;;3.08;;
74152;SDS011;62505;46.070;14.492;2023-07-13T02:51:50;6.85;;;3.22;;
74152;SDS011;62505;46.070;14.492;2023-07-13T02:54:17;6.22;;;3.38;;
74152;SDS011;62505;46.070;14.492;2023-07-13T02:56:44;7.32;;;3.60;;
74152;SDS011;62505;46.070;14.492;2023-07-13T02:59:11;3.85;;;2.95;;
74152;SDS011;62505;46.070;14.492;2023-07-13T03:01:38;6.18;;;3.40;;
74152;SDS011;62505;46.070;14.492;2023-07-13T03:04:07;7.65;;;3.03;;
74152;SDS011;62505;46.070;14.492;2023-07-13T03:06:34;9.80;;;3.67;;
74152;SDS011;62505;46.070;14.492;2023-07-13T03:09:01;5.53;;;3.45;;
74152;SDS011;62505;46.070;14.492;2023-07-13T03:11:29;4.60;;;3.05;;
74152;SDS011;62505;46.070;14.492;2023-07-13T03:13:57;6.22;;;3.17;;
74152;SDS011;62505;46.070;14.492;2023-07-13T03:16:24;5.57;;;3.08;;
74152;SDS011;62505;46.070;14.492;2023-07-13T03:18:51;6.38;;;2.97;;
74152;SDS011;62505;46.070;14.492;2023-07-13T03:21:19;6.88;;;3.28;;
74152;SDS011;62505;46.070;14.492;2023-07-13T03:23:46;5.25;;;2.85;;
74152;SDS011;62505;46.070;14.492;2023-07-13T03:26:15;5.82;;;2.83;;
74152;SDS011;62505;46.070;14.492;2023-07-13T03:28:43;5.13;;;3.20;;
74152;SDS011;62505;46.070;14.492;2023-07-13T03:31:11;4.57;;;3.17;;
74152;SDS011;62505;46.070;14.492;2023-07-13T03:33:40;5.78;;;3.00;;
74152;SDS011;62505;46.070;14.492;2023-07-13T03:36:09;5.75;;;3.20;;
74152;SDS011;62505;46.070;14.492;2023-07-13T03:38:40;4.82;;;2.72;;
74152;SDS011;62505;46.070;14.492;2023-07-13T03:41:07;5.57;;;3.25;;
74152;SDS011;62505;46.070;14.492;2023-07-13T03:43:33;4.75;;;2.90;;
74152;SDS011;62505;46.070;14.492;2023-07-13T03:46:00;4.18;;;3.20;;
74152;SDS011;62505;46.070;14.492;2023-07-13T03:48:27;3.42;;;2.42;;
74152;SDS011;62505;46.070;14.492;2023-07-13T03:50:54;3.53;;;2.67;;
74152;SDS011;62505;46.070;14.492;2023-07-13T03:53:21;4.00;;;2.60;;
74152;SDS011;62505;46.070;14.492;2023-07-13T03:55:49;4.28;;;2.80;;
74152;SDS011;62505;46.070;14.492;2023-07-13T03:58:23;4.88;;;2.95;;
74152;SDS011;62505;46.070;14.492;2023-07-13T04:00:53;4.72;;;2.50;;
74152;SDS011;62505;46.070;14.492;2023-07-13T04:03:20;6.85;;;3.42;;
74152;SDS011;62505;46.070;14.492;2023-07-13T04:05:47;5.30;;;2.90;;
74152;SDS011;62505;46.070;14.492;2023-07-13T04:08:14;3.88;;;2.35;;
74152;SDS011;62505;46.070;14.492;2023-07-13T04:10:42;7.25;;;2.65;;
74152;SDS011;62505;46.070;14.492;2023-07-13T04:13:10;4.82;;;1.90;;
74152;SDS011;62505;46.070;14.492;2023-07-13T04:15:38;3.22;;;2.03;;
74152;SDS011;62505;46.070;14.492;2023-07-13T04:18:05;4.07;;;2.00;;
74152;SDS011;62505;46.070;14.492;2023-07-13T04:20:32;5.70;;;2.22;;
74152;SDS011;62505;46.070;14.492;2023-07-13T04:22:59;8.45;;;2.33;;
74152;SDS011;62505;46.070;14.492;2023-07-13T04:25:26;9.00;;;2.63;;
74152;SDS011;62505;46.070;14.492;2023-07-13T04:27:53;4.78;;;2.05;;
74152;SDS011;62505;46.070;14.492;2023-07-13T04:30:22;3.72;;;2.10;;
74152;SDS011;62505;46.070;14.492;2023-07-13T04:32:49;4.50;;;1.73;;
74152;SDS011;62505;46.070;14.492;2023-07-13T04:35:18;5.18;;;1.92;;
74152;SDS011;62505;46.070;14.492;2023-07-13T04:37:45;3.30;;;1.70;;
74152;SDS011;62505;46.070;14.492;2023-07-13T04:40:15;6.85;;;2.03;;
74152;SDS011;62505;46.070;14.492;2023-07-13T04:42:42;3.83;;;1.73;;
74152;SDS011;62505;46.070;14.492;2023-07-13T04:45:09;4.63;;;2.20;;
74152;SDS011;62505;46.070;14.492;2023-07-13T04:47:38;4.68;;;2.20;;
74152;SDS011;62505;46.070;14.492;2023-07-13T04:50:05;5.28;;;2.10;;
74152;SDS011;62505;46.070;14.492;2023-07-13T04:52:34;6.03;;;2.20;;
74152;SDS011;62505;46.070;14.492;2023-07-13T04:55:01;3.58;;;2.00;;
74152;SDS011;62505;46.070;14.492;2023-07-13T04:57:29;4.82;;;2.20;;
74152;SDS011;62505;46.070;14.492;2023-07-13T04:59:56;7.25;;;2.60;;
74152;SDS011;62505;46.070;14.492;2023-07-13T05:02:26;6.15;;;1.80;;
74152;SDS011;62505;46.070;14.492;2023-07-13T05:04:54;3.53;;;2.22;;
74152;SDS011;62505;46.070;14.492;2023-07-13T05:07:21;8.90;;;2.67;;
74152;SDS011;62505;46.070;14.492;2023-07-13T05:09:48;4.90;;;1.98;;
74152;SDS011;62505;46.070;14.492;2023-07-13T05:12:15;5.43;;;2.30;;
74152;SDS011;62505;46.070;14.492;2023-07-13T05:14:42;6.55;;;2.05;;
74152;SDS011;62505;46.070;14.492;2023-07-13T05:17:09;6.60;;;1.90;;
74152;SDS011;62505;46.070;14.492;2023-07-13T05:19:36;7.20;;;2.08;;
74152;SDS011;62505;46.070;14.492;2023-07-13T05:22:04;4.82;;;1.75;;
74152;SDS011;62505;46.070;14.492;2023-07-13T05:24:31;7.57;;;2.47;;
74152;SDS011;62505;46.070;14.492;2023-07-13T05:26:58;6.97;;;2.45;;
74152;SDS011;62505;46.070;14.492;2023-07-13T05:29:25;4.93;;;1.90;;
74152;SDS011;62505;46.070;14.492;2023-07-13T05:31:52;4.75;;;1.95;;
74152;SDS011;62505;46.070;14.492;2023-07-13T05:34:19;7.88;;;1.90;;
74152;SDS011;62505;46.070;14.492;2023-07-13T05:36:46;6.38;;;1.92;;
74152;SDS011;62505;46.070;14.492;2023-07-13T05:39:15;3.35;;;1.52;;
74152;SDS011;62505;46.070;14.492;2023-07-13T05:41:42;4.75;;;1.77;;
74152;SDS011;62505;46.070;14.492;2023-07-13T05:44:09;5.28;;;2.15;;
74152;SDS011;62505;46.070;14.492;2023-07-13T05:46:36;4.25;;;1.95;;
74152;SDS011;62505;46.070;14.492;2023-07-13T05:49:03;3.17;;;1.38;;
74152;SDS011;62505;46.070;14.492;2023-07-13T05:51:30;4.88;;;1.60;;
74152;SDS011;62505;46.070;14.492;2023-07-13T05:53:57;3.15;;;1.65;;
74152;SDS011;62505;46.070;14.492;2023-07-13T05:56:25;4.43;;;1.80;;
74152;SDS011;62505;46.070;14.492;2023-07-13T05:58:52;4.15;;;1.60;;
74152;SDS011;62505;46.070;14.492;2023-07-13T06:01:19;2.30;;;1.55;;
74152;SDS011;62505;46.070;14.492;2023-07-13T06:03:47;3.10;;;1.58;;
74152;SDS011;62505;46.070;14.492;2023-07-13T06:06:14;4.30;;;1.80;;
74152;SDS011;62505;46.070;14.492;2023-07-13T06:08:41;5.50;;;2.00;;
74152;SDS011;62505;46.070;14.492;2023-07-13T06:11:10;4.03;;;1.70;;
74152;SDS011;62505;46.070;14.492;2023-07-13T06:13:41;4.15;;;1.80;;
74152;SDS011;62505;46.070;14.492;2023-07-13T06:16:08;2.67;;;1.60;;
74152;SDS011;62505;46.070;14.492;2023-07-13T06:18:36;5.10;;;1.52;;
74152;SDS011;62505;46.070;14.492;2023-07-13T06:21:07;4.68;;;1.38;;
74152;SDS011;62505;46.070;14.492;2023-07-13T06:23:34;4.93;;;1.55;;
74152;SDS011;62505;46.070;14.492;2023-07-13T06:26:02;4.45;;;1.55;;
74152;SDS011;62505;46.070;14.492;2023-07-13T06:28:29;2.95;;;1.50;;
74152;SDS011;62505;46.070;14.492;2023-07-13T06:30:58;4.00;;;1.85;;
74152;SDS011;62505;46.070;14.492;2023-07-13T06:33:26;3.55;;;1.58;;
74152;SDS011;62505;46.070;14.492;2023-07-13T06:35:53;6.75;;;2.03;;
74152;SDS011;62505;46.070;14.492;2023-07-13T06:38:21;2.80;;;1.60;;
74152;SDS011;62505;46.070;14.492;2023-07-13T06:40:48;3.42;;;1.50;;
74152;SDS011;62505;46.070;14.492;2023-07-13T06:43:15;2.60;;;1.30;;
74152;SDS011;62505;46.070;14.492;2023-07-13T06:45:43;3.30;;;1.45;;
74152;SDS011;62505;46.070;14.492;2023-07-13T06:48:13;1.45;;;1.15;;
74152;SDS011;62505;46.070;14.492;2023-07-13T06:50:41;3.42;;;1.50;;
74152;SDS011;62505;46.070;14.492;2023-07-13T06:53:09;3.53;;;1.52;;
74152;SDS011;62505;46.070;14.492;2023-07-13T06:55:36;2.63;;;1.27;;
74152;SDS011;62505;46.070;14.492;2023-07-13T06:58:03;3.97;;;1.60;;
74152;SDS011;62505;46.070;14.492;2023-07-13T07:00:30;3.78;;;1.40;;
74152;SDS011;62505;46.070;14.492;2023-07-13T07:02:57;4.00;;;1.40;;
74152;SDS011;62505;46.070;14.492;2023-07-13T07:05:25;3.05;;;1.65;;
74152;SDS011;62505;46.070;14.492;2023-07-13T07:07:53;4.40;;;1.50;;
74152;SDS011;62505;46.070;14.492;2023-07-13T07:10:21;2.13;;;1.33;;
74152;SDS011;62505;46.070;14.492;2023-07-13T07:12:48;4.82;;;1.63;;
74152;SDS011;62505;46.070;14.492;2023-07-13T07:15:15;4.78;;;1.77;;
74152;SDS011;62505;46.070;14.492;2023-07-13T07:17:43;3.33;;;1.40;;
74152;SDS011;62505;46.070;14.492;2023-07-13T07:20:10;3.00;;;1.55;;
74152;SDS011;62505;46.070;14.492;2023-07-13T07:22:39;1.52;;;1.20;;
74152;SDS011;62505;46.070;14.492;2023-07-13T07:25:06;2.50;;;1.60;;
74152;SDS011;62505;46.070;14.492;2023-07-13T07:27:33;3.70;;;1.50;;
74152;SDS011;62505;46.070;14.492;2023-07-13T07:30:00;2.55;;;1.20;;
74152;SDS011;62505;46.070;14.492;2023-07-13T07:32:28;3.42;;;1.30;;
74152;SDS011;62505;46.070;14.492;2023-07-13T07:34:55;3.28;;;1.50;;
74152;SDS011;62505;46.070;14.492;2023-07-13T07:37:22;2.85;;;1.65;;
74152;SDS011;62505;46.070;14.492;2023-07-13T07:39:51;2.20;;;1.20;;
74152;SDS011;62505;46.070;14.492;2023-07-13T07:42:18;2.90;;;1.17;;
74152;SDS011;62505;46.070;14.492;2023-07-13T07:44:46;2.85;;;1.50;;
74152;SDS011;62505;46.070;14.492;2023-07-13T07:47:13;2.08;;;1.38;;
74152;SDS011;62505;46.070;14.492;2023-07-13T07:49:40;2.25;;;1.20;;
74152;SDS011;62505;46.070;14.492;2023-07-13T07:52:07;2.65;;;1.30;;
74152;SDS011;62505;46.070;14.492;2023-07-13T07:54:34;2.70;;;1.60;;
74152;SDS011;62505;46.070;14.492;2023-07-13T07:57:02;2.55;;;1.23;;
74152;SDS011;62505;46.070;14.492;2023-07-13T07:59:29;2.45;;;1.40;;
74152;SDS011;62505;46.070;14.492;2023-07-13T08:01:56;3.38;;;1.40;;
74152;SDS011;62505;46.070;14.492;2023-07-13T08:04:23;4.05;;;1.73;;
74152;SDS011;62505;46.070;14.492;2023-07-13T08:06:50;2.38;;;1.48;;
74152;SDS011;62505;46.070;14.492;2023-07-13T08:09:17;3.35;;;1.40;;
74152;SDS011;62505;46.070;14.492;2023-07-13T08:11:44;3.88;;;1.40;;
74152;SDS011;62505;46.070;14.492;2023-07-13T08:14:12;2.60;;;1.30;;
74152;SDS011;62505;46.070;14.492;2023-07-13T08:16:39;2.58;;;1.30;;
74152;SDS011;62505;46.070;14.492;2023-07-13T08:19:06;2.03;;;1.40;;
74152;SDS011;62505;46.070;14.492;2023-07-13T08:21:33;3.53;;;1.52;;
74152;SDS011;62505;46.070;14.492;2023-07-13T08:24:00;2.50;;;1.33;;
74152;SDS011;62505;46.070;14.492;2023-07-13T08:26:27;2.03;;;1.25;;
74152;SDS011;62505;46.070;14.492;2023-07-13T08:28:54;3.33;;;1.20;;
74152;SDS011;62505;46.070;14.492;2023-07-13T08:31:22;2.83;;;1.45;;
74152;SDS011;62505;46.070;14.492;2023-07-13T08:33:49;2.92;;;1.00;;
74152;SDS011;62505;46.070;14.492;2023-07-13T08:36:16;2.03;;;1.20;;
74152;SDS011;62505;46.070;14.492;2023-07-13T08:38:43;3.80;;;1.35;;
74152;SDS011;62505;46.070;14.492;2023-07-13T08:41:11;3.35;;;1.52;;
74152;SDS011;62505;46.070;14.492;2023-07-13T08:43:39;2.53;;;1.30;;
74152;SDS011;62505;46.070;14.492;2023-07-13T08:46:09;1.40;;;1.13;;
74152;SDS011;62505;46.070;14.492;2023-07-13T08:48:43;1.77;;;1.15;;
74152;SDS011;62505;46.070;14.492;2023-07-13T08:51:18;1.98;;;1.00;;
74152;SDS011;62505;46.070;14.492;2023-07-13T08:53:58;2.72;;;1.50;;
74152;SDS011;62505;46.070;14.492;2023-07-13T08:56:28;2.72;;;1.27;;
74152;SDS011;62505;46.070;14.492;2023-07-13T08:58:58;2.60;;;1.15;;
74152;SDS011;62505;46.070;14.492;2023-07-13T09:01:31;1.25;;;1.00;;
74152;SDS011;62505;46.070;14.492;2023-07-13T09:04:07;1.88;;;1.20;;
74152;SDS011;62505;46.070;14.492;2023-07-13T09:06:42;2.67;;;1.40;;
74152;SDS011;62505;46.070;14.492;2023-07-13T09:09:18;2.22;;;1.20;;
74152;SDS011;62505;46.070;14.492;2023-07-13T09:11:53;1.70;;;1.10;;
74152;SDS011;62505;46.070;14.492;2023-07-13T09:14:33;1.50;;;1.10;;
74152;SDS011;62505;46.070;14.492;2023-07-13T09:17:12;1.90;;;1.15;;
74152;SDS011;62505;46.070;14.492;2023-07-13T09:19:46;3.38;;;1.40;;
74152;SDS011;62505;46.070;14.492;2023-07-13T09:22:19;4.05;;;1.60;;
74152;SDS011;62505;46.070;14.492;2023-07-13T09:24:51;2.35;;;1.40;;
74152;SDS011;62505;46.070;14.492;2023-07-13T09:27:23;1.83;;;1.15;;
74152;SDS011;62505;46.070;14.492;2023-07-13T09:30:11;2.58;;;1.52;;
74152;SDS011;62505;46.070;14.492;2023-07-13T09:32:50;2.38;;;1.35;;
74152;SDS011;62505;46.070;14.492;2023-07-13T09:35:20;2.17;;;1.30;;
74152;SDS011;62505;46.070;14.492;2023-07-13T09:37:51;1.98;;;1.30;;
74152;SDS011;62505;46.070;14.492;2023-07-13T09:40:24;1.60;;;1.15;;
74152;SDS011;62505;46.070;14.492;2023-07-13T09:42:59;2.30;;;1.23;;
74152;SDS011;62505;46.070;14.492;2023-07-13T09:45:30;2.53;;;1.52;;
74152;SDS011;62505;46.070;14.492;2023-07-13T09:47:59;1.30;;;0.98;;
74152;SDS011;62505;46.070;14.492;2023-07-13T09:50:31;1.58;;;1.08;;
74152;SDS011;62505;46.070;14.492;2023-07-13T09:52:58;2.30;;;1.27;;
74152;SDS011;62505;46.070;14.492;2023-07-13T09:55:30;2.42;;;1.20;;
74152;SDS011;62505;46.070;14.492;2023-07-13T09:58:02;1.77;;;1.00;;
74152;SDS011;62505;46.070;14.492;2023-07-13T10:00:31;1.85;;;1.25;;
74152;SDS011;62505;46.070;14.492;2023-07-13T10:02:59;1.80;;;1.27;;
74152;SDS011;62505;46.070;14.492;2023-07-13T10:05:38;3.13;;;1.42;;
74152;SDS011;62505;46.070;14.492;2023-07-13T10:08:09;2.42;;;1.33;;
74152;SDS011;62505;46.070;14.492;2023-07-13T10:10:43;1.50;;;1.05;;
74152;SDS011;62505;46.070;14.492;2023-07-13T10:13:21;1.25;;;1.05;;
74152;SDS011;62505;46.070;14.492;2023-07-13T10:15:52;2.17;;;1.20;;
74152;SDS011;62505;46.070;14.492;2023-07-13T10:18:20;1.65;;;1.30;;
74152;SDS011;62505;46.070;14.492;2023-07-13T10:20:49;1.95;;;1.27;;
74152;SDS011;62505;46.070;14.492;2023-07-13T10:23:20;1.73;;;1.13;;
74152;SDS011;62505;46.070;14.492;2023-07-13T10:25:49;1.65;;;1.10;;
74152;SDS011;62505;46.070;14.492;2023-07-13T10:28:20;2.55;;;1.40;;
74152;SDS011;62505;46.070;14.492;2023-07-13T10:30:53;2.47;;;1.10;;
74152;SDS011;62505;46.070;14.492;2023-07-13T10:33:22;1.80;;;1.25;;
74152;SDS011;62505;46.070;14.492;2023-07-13T10:35:51;2.13;;;1.20;;
74152;SDS011;62505;46.070;14.492;2023-07-13T10:38:35;1.33;;;0.90;;
74152;SDS011;62505;46.070;14.492;2023-07-13T10:41:04;1.90;;;1.15;;
74152;SDS011;62505;46.070;14.492;2023-07-13T10:43:33;2.08;;;1.10;;
74152;SDS011;62505;46.070;14.492;2023-07-13T10:46:03;2.08;;;1.20;;
74152;SDS011;62505;46.070;14.492;2023-07-13T10:48:32;2.42;;;1.10;;
74152;SDS011;62505;46.070;14.492;2023-07-13T10:51:03;1.40;;;1.10;;
74152;SDS011;62505;46.070;14.492;2023-07-13T10:53:33;1.30;;;1.13;;
74152;SDS011;62505;46.070;14.492;2023-07-13T10:56:01;1.52;;;1.20;;
74152;SDS011;62505;46.070;14.492;2023-07-13T10:58:34;1.52;;;1.00;;
74152;SDS011;62505;46.070;14.492;2023-07-13T11:01:04;1.83;;;1.30;;
74152;SDS011;62505;46.070;14.492;2023-07-13T11:03:35;1.65;;;1.25;;
74152;SDS011;62505;46.070;14.492;2023-07-13T11:06:07;2.47;;;1.00;;
74152;SDS011;62505;46.070;14.492;2023-07-13T11:08:37;1.35;;;1.20;;
74152;SDS011;62505;46.070;14.492;2023-07-13T11:14:01;1.35;;;1.02;;
74152;SDS011;62505;46.070;14.492;2023-07-13T11:16:34;1.20;;;0.93;;
74152;SDS011;62505;46.070;14.492;2023-07-13T11:19:27;2.58;;;1.25;;
74152;SDS011;62505;46.070;14.492;2023-07-13T11:22:24;1.67;;;1.10;;
74152;SDS011;62505;46.070;14.492;2023-07-13T11:25:21;1.30;;;0.88;;
74152;SDS011;62505;46.070;14.492;2023-07-13T11:28:04;1.60;;;1.08;;
74152;SDS011;62505;46.070;14.492;2023-07-13T11:30:39;2.03;;;1.00;;
74152;SDS011;62505;46.070;14.492;2023-07-13T11:33:14;1.58;;;1.00;;
74152;SDS011;62505;46.070;14.492;2023-07-13T11:35:48;1.70;;;1.17;;
74152;SDS011;62505;46.070;14.492;2023-07-13T11:38:30;2.13;;;1.10;;
74152;SDS011;62505;46.070;14.492;2023-07-13T11:41:01;1.52;;;1.15;;
74152;SDS011;62505;46.070;14.492;2023-07-13T11:43:30;1.48;;;1.13;;
74152;SDS011;62505;46.070;14.492;2023-07-13T11:45:58;1.05;;;0.90;;
74152;SDS011;62505;46.070;14.492;2023-07-13T11:48:38;1.95;;;1.30;;
74152;SDS011;62505;46.070;14.492;2023-07-13T11:51:05;2.67;;;0.90;;
74152;SDS011;62505;46.070;14.492;2023-07-13T11:53:36;1.95;;;1.40;;
74152;SDS011;62505;46.070;14.492;2023-07-13T11:56:06;1.42;;;0.90;;
74152;SDS011;62505;46.070;14.492;2023-07-13T11:58:33;1.95;;;1.35;;
74152;SDS011;62505;46.070;14.492;2023-07-13T12:01:01;1.65;;;1.00;;
74152;SDS011;62505;46.070;14.492;2023-07-13T12:03:30;2.55;;;1.10;;
74152;SDS011;62505;46.070;14.492;2023-07-13T12:06:00;1.60;;;0.95;;
74152;SDS011;62505;46.070;14.492;2023-07-13T12:08:31;2.65;;;1.40;;
74152;SDS011;62505;46.070;14.492;2023-07-13T12:11:05;1.45;;;1.05;;
74152;SDS011;62505;46.070;14.492;2023-07-13T12:13:40;1.35;;;1.15;;
74152;SDS011;62505;46.070;14.492;2023-07-13T12:16:11;1.60;;;1.05;;
74152;SDS011;62505;46.070;14.492;2023-07-13T12:18:42;1.55;;;1.00;;
74152;SDS011;62505;46.070;14.492;2023-07-13T12:21:16;1.40;;;1.15;;
74152;SDS011;62505;46.070;14.492;2023-07-13T12:23:45;1.70;;;1.20;;
74152;SDS011;62505;46.070;14.492;2023-07-13T12:26:17;2.90;;;1.13;;
74152;SDS011;62505;46.070;14.492;2023-07-13T12:28:46;1.27;;;1.00;;
74152;SDS011;62505;46.070;14.492;2023-07-13T12:34:00;2.42;;;1.30;;
74152;SDS011;62505;46.070;14.492;2023-07-13T12:36:33;1.52;;;1.08;;
74152;SDS011;62505;46.070;14.492;2023-07-13T12:39:04;1.55;;;0.90;;
74152;SDS011;62505;46.070;14.492;2023-07-13T12:41:40;1.65;;;1.10;;
74152;SDS011;62505;46.070;14.492;2023-07-13T12:44:10;1.70;;;1.15;;
74152;SDS011;62505;46.070;14.492;2023-07-13T12:46:38;2.00;;;1.00;;
74152;SDS011;62505;46.070;14.492;2023-07-13T12:49:06;1.85;;;1.20;;
74152;SDS011;62505;46.070;14.492;2023-07-13T12:51:34;1.73;;;1.00;;
74152;SDS011;62505;46.070;14.492;2023-07-13T12:54:07;1.63;;;1.02;;
74152;SDS011;62505;46.070;14.492;2023-07-13T12:56:42;1.45;;;1.08;;
74152;SDS011;62505;46.070;14.492;2023-07-13T12:59:14;2.05;;;1.20;;
74152;SDS011;62505;46.070;14.492;2023-07-13T13:01:46;2.00;;;1.20;;
74152;SDS011;62505;46.070;14.492;2023-07-13T13:04:14;2.03;;;1.35;;
74152;SDS011;62505;46.070;14.492;2023-07-13T13:06:46;1.75;;;1.30;;
74152;SDS011;62505;46.070;14.492;2023-07-13T13:09:14;1.92;;;1.00;;
74152;SDS011;62505;46.070;14.492;2023-07-13T13:11:44;1.10;;;0.98;;
74152;SDS011;62505;46.070;14.492;2023-07-13T13:14:11;1.33;;;1.00;;
74152;SDS011;62505;46.070;14.492;2023-07-13T13:16:43;1.48;;;1.20;;
74152;SDS011;62505;46.070;14.492;2023-07-13T13:19:15;1.70;;;1.25;;
74152;SDS011;62505;46.070;14.492;2023-07-13T13:21:44;1.25;;;1.10;;
74152;SDS011;62505;46.070;14.492;2023-07-13T13:24:12;1.55;;;1.05;;
74152;SDS011;62505;46.070;14.492;2023-07-13T13:26:40;1.45;;;1.05;;
74152;SDS011;62505;46.070;14.492;2023-07-13T13:29:13;1.77;;;1.10;;
74152;SDS011;62505;46.070;14.492;2023-07-13T13:31:42;1.77;;;1.05;;
74152;SDS011;62505;46.070;14.492;2023-07-13T13:34:10;1.65;;;1.10;;
74152;SDS011;62505;46.070;14.492;2023-07-13T13:36:41;1.20;;;1.00;;
74152;SDS011;62505;46.070;14.492;2023-07-13T13:39:15;1.50;;;1.00;;
74152;SDS011;62505;46.070;14.492;2023-07-13T13:41:45;1.45;;;1.00;;
74152;SDS011;62505;46.070;14.492;2023-07-13T13:44:14;1.08;;;0.80;;
74152;SDS011;62505;46.070;14.492;2023-07-13T13:46:42;1.67;;;1.02;;
74152;SDS011;62505;46.070;14.492;2023-07-13T13:49:12;1.23;;;1.10;;
74152;SDS011;62505;46.070;14.492;2023-07-13T13:51:42;1.00;;;0.90;;
74152;SDS011;62505;46.070;14.492;2023-07-13T13:54:10;1.27;;;1.10;;
74152;SDS011;62505;46.070;14.492;2023-07-13T13:56:41;1.38;;;1.08;;
74152;SDS011;62505;46.070;14.492;2023-07-13T13:59:08;1.80;;;1.10;;
74152;SDS011;62505;46.070;14.492;2023-07-13T14:01:37;1.20;;;1.10;;
74152;SDS011;62505;46.070;14.492;2023-07-13T14:04:06;1.63;;;1.15;;
74152;SDS011;62505;46.070;14.492;2023-07-13T14:06:35;1.65;;;1.10;;
74152;SDS011;62505;46.070;14.492;2023-07-13T14:09:02;1.27;;;0.90;;
74152;SDS011;62505;46.070;14.492;2023-07-13T14:11:29;1.52;;;1.00;;
74152;SDS011;62505;46.070;14.492;2023-07-13T14:13:58;1.20;;;1.00;;
74152;SDS011;62505;46.070;14.492;2023-07-13T14:16:29;1.50;;;1.10;;
74152;SDS011;62505;46.070;14.492;2023-07-13T14:18:59;1.23;;;1.05;;
74152;SDS011;62505;46.070;14.492;2023-07-13T14:21:27;1.83;;;1.20;;
74152;SDS011;62505;46.070;14.492;2023-07-13T14:23:55;1.20;;;1.00;;
74152;SDS011;62505;46.070;14.492;2023-07-13T14:26:23;0.85;;;0.85;;
74152;SDS011;62505;46.070;14.492;2023-07-13T14:28:52;1.20;;;1.00;;
74152;SDS011;62505;46.070;14.492;2023-07-13T14:31:20;3.55;;;1.10;;
74152;SDS011;62505;46.070;14.492;2023-07-13T14:33:48;1.50;;;1.13;;
74152;SDS011;62505;46.070;14.492;2023-07-13T14:36:23;2.08;;;1.23;;
74152;SDS011;62505;46.070;14.492;2023-07-13T14:38:54;2.58;;;1.20;;
74152;SDS011;62505;46.070;14.492;2023-07-13T14:41:21;1.77;;;1.42;;
74152;SDS011;62505;46.070;14.492;2023-07-13T14:43:49;1.20;;;1.08;;
74152;SDS011;62505;46.070;14.492;2023-07-13T14:46:21;1.42;;;1.05;;
74152;SDS011;62505;46.070;14.492;2023-07-13T14:48:54;1.55;;;1.10;;
74152;SDS011;62505;46.070;14.492;2023-07-13T14:51:28;2.00;;;1.20;;